sensor_id;sensor_type;location;lat;lon;timestamp;P1;durP1;ratioP1;P2;durP2;ratioP2
22679;SDS011;11507;44.858;10.374;2022-12-13T00:01:52;71.03;;;29.27;;
22679;SDS011;11507;44.858;10.374;2022-12-13T00:04:19;63.65;;;27.00;;
22679;SDS011;11507;44.858;10.374;2022-12-13T00:06:47;65.82;;;28.38;;
22679;SDS011;11507;44.858;10.374;2022-12-13T00:09:14;64.38;;;28.38;;
22679;SDS011;11507;44.858;10.374;2022-12-13T00:11:42;67.65;;;28.33;;
22679;SDS011;11507;44.858;10.374;2022-12-13T00:14:09;71.80;;;29.25;;
22679;SDS011;11507;44.858;10.374;2022-12-13T00:16:38;73.82;;;30.48;;
22679;SDS011;11507;44.858;10.374;2022-12-13T00:19:04;67.65;;;27.42;;
22679;SDS011;11507;44.858;10.374;2022-12-13T00:23:57;74.15;;;30.25;;
22679;SDS011;11507;44.858;10.374;2022-12-13T00:26:25;71.65;;;28.42;;
22679;SDS011;11507;44.858;10.374;2022-12-13T00:28:53;68.55;;;28.00;;
22679;SDS011;11507;44.858;10.374;2022-12-13T00:31:20;67.10;;;28.88;;
22679;SDS011;11507;44.858;10.374;2022-12-13T00:33:47;62.20;;;27.00;;
22679;SDS011;11507;44.858;10.374;2022-12-13T00:36:14;71.40;;;28.55;;
22679;SDS011;11507;44.858;10.374;2022-12-13T00:38:42;71.85;;;28.35;;
22679;SDS011;11507;44.858;10.374;2022-12-13T00:41:15;67.57;;;29.33;;
22679;SDS011;11507;44.858;10.374;2022-12-13T00:43:42;59.97;;;26.13;;
22679;SDS011;11507;44.858;10.374;2022-12-13T00:46:16;64.78;;;27.67;;
22679;SDS011;11507;44.858;10.374;2022-12-13T00:48:43;67.03;;;27.73;;
22679;SDS011;11507;44.858;10.374;2022-12-13T00:51:13;70.85;;;28.13;;
22679;SDS011;11507;44.858;10.374;2022-12-13T00:56:10;65.32;;;27.45;;
22679;SDS011;11507;44.858;10.374;2022-12-13T00:58:38;68.43;;;27.20;;
22679;SDS011;11507;44.858;10.374;2022-12-13T01:01:06;65.05;;;27.65;;
22679;SDS011;11507;44.858;10.374;2022-12-13T01:03:37;67.80;;;27.95;;
22679;SDS011;11507;44.858;10.374;2022-12-13T01:08:44;62.53;;;27.23;;
22679;SDS011;11507;44.858;10.374;2022-12-13T01:11:10;68.55;;;28.10;;
22679;SDS011;11507;44.858;10.374;2022-12-13T01:13:37;66.63;;;27.25;;
22679;SDS011;11507;44.858;10.374;2022-12-13T01:21:29;66.88;;;27.25;;
22679;SDS011;11507;44.858;10.374;2022-12-13T01:23:49;62.15;;;27.30;;
22679;SDS011;11507;44.858;10.374;2022-12-13T01:28:43;59.53;;;26.90;;
22679;SDS011;11507;44.858;10.374;2022-12-13T01:31:10;66.20;;;27.48;;
22679;SDS011;11507;44.858;10.374;2022-12-13T01:33:37;60.67;;;26.50;;
22679;SDS011;11507;44.858;10.374;2022-12-13T01:36:06;61.38;;;27.13;;
22679;SDS011;11507;44.858;10.374;2022-12-13T01:38:34;56.47;;;25.38;;
22679;SDS011;11507;44.858;10.374;2022-12-13T01:41:00;63.58;;;27.08;;
22679;SDS011;11507;44.858;10.374;2022-12-13T01:43:28;59.72;;;25.55;;
22679;SDS011;11507;44.858;10.374;2022-12-13T01:46:16;65.50;;;27.48;;
22679;SDS011;11507;44.858;10.374;2022-12-13T01:51:26;63.25;;;27.10;;
22679;SDS011;11507;44.858;10.374;2022-12-13T01:54:10;46.23;;;19.93;;
22679;SDS011;11507;44.858;10.374;2022-12-13T01:56:42;58.78;;;26.15;;
22679;SDS011;11507;44.858;10.374;2022-12-13T01:59:11;61.40;;;25.80;;
22679;SDS011;11507;44.858;10.374;2022-12-13T02:01:39;59.97;;;26.15;;
22679;SDS011;11507;44.858;10.374;2022-12-13T02:04:06;58.08;;;24.80;;
22679;SDS011;11507;44.858;10.374;2022-12-13T02:06:33;62.67;;;27.15;;
22679;SDS011;11507;44.858;10.374;2022-12-13T02:09:03;60.35;;;26.77;;
22679;SDS011;11507;44.858;10.374;2022-12-13T02:11:30;61.63;;;28.20;;
22679;SDS011;11507;44.858;10.374;2022-12-13T02:13:58;68.07;;;29.80;;
22679;SDS011;11507;44.858;10.374;2022-12-13T02:21:39;62.63;;;26.58;;
22679;SDS011;11507;44.858;10.374;2022-12-13T02:27:33;64.70;;;27.67;;
22679;SDS011;11507;44.858;10.374;2022-12-13T02:30:43;64.68;;;28.10;;
22679;SDS011;11507;44.858;10.374;2022-12-13T02:39:00;66.65;;;27.65;;
22679;SDS011;11507;44.858;10.374;2022-12-13T02:41:49;64.95;;;27.55;;
22679;SDS011;11507;44.858;10.374;2022-12-13T02:46:59;68.85;;;28.50;;
22679;SDS011;11507;44.858;10.374;2022-12-13T02:49:29;64.20;;;28.15;;
22679;SDS011;11507;44.858;10.374;2022-12-13T02:51:59;66.07;;;28.52;;
22679;SDS011;11507;44.858;10.374;2022-12-13T02:54:27;70.65;;;27.30;;
22679;SDS011;11507;44.858;10.374;2022-12-13T02:56:56;73.95;;;29.13;;
22679;SDS011;11507;44.858;10.374;2022-12-13T02:59:24;67.55;;;28.10;;
22679;SDS011;11507;44.858;10.374;2022-12-13T03:02:09;67.85;;;28.10;;
22679;SDS011;11507;44.858;10.374;2022-12-13T03:07:58;78.50;;;31.15;;
22679;SDS011;11507;44.858;10.374;2022-12-13T03:11:04;76.75;;;29.98;;
22679;SDS011;11507;44.858;10.374;2022-12-13T03:13:49;73.63;;;28.42;;
22679;SDS011;11507;44.858;10.374;2022-12-13T03:18:53;64.45;;;27.13;;
22679;SDS011;11507;44.858;10.374;2022-12-13T03:21:23;64.82;;;26.15;;
22679;SDS011;11507;44.858;10.374;2022-12-13T03:23:50;62.97;;;26.95;;
22679;SDS011;11507;44.858;10.374;2022-12-13T03:26:17;68.68;;;28.27;;
22679;SDS011;11507;44.858;10.374;2022-12-13T03:28:46;68.20;;;27.95;;
22679;SDS011;11507;44.858;10.374;2022-12-13T03:31:12;69.22;;;28.23;;
22679;SDS011;11507;44.858;10.374;2022-12-13T03:36:04;64.22;;;28.35;;
22679;SDS011;11507;44.858;10.374;2022-12-13T03:38:31;66.82;;;28.30;;
22679;SDS011;11507;44.858;10.374;2022-12-13T03:40:58;64.80;;;27.67;;
22679;SDS011;11507;44.858;10.374;2022-12-13T03:43:26;60.70;;;26.83;;
22679;SDS011;11507;44.858;10.374;2022-12-13T03:45:53;60.80;;;26.70;;
22679;SDS011;11507;44.858;10.374;2022-12-13T03:48:20;64.82;;;27.70;;
22679;SDS011;11507;44.858;10.374;2022-12-13T03:50:46;62.83;;;27.02;;
22679;SDS011;11507;44.858;10.374;2022-12-13T03:55:38;61.40;;;25.10;;
22679;SDS011;11507;44.858;10.374;2022-12-13T04:00:30;63.90;;;28.65;;
22679;SDS011;11507;44.858;10.374;2022-12-13T04:05:22;63.03;;;27.10;;
22679;SDS011;11507;44.858;10.374;2022-12-13T04:10:14;64.15;;;27.25;;
22679;SDS011;11507;44.858;10.374;2022-12-13T04:12:41;72.28;;;29.00;;
22679;SDS011;11507;44.858;10.374;2022-12-13T04:15:26;65.45;;;28.27;;
22679;SDS011;11507;44.858;10.374;2022-12-13T04:20:17;72.03;;;27.55;;
22679;SDS011;11507;44.858;10.374;2022-12-13T04:25:10;70.18;;;27.92;;
22679;SDS011;11507;44.858;10.374;2022-12-13T04:30:03;63.92;;;27.75;;
22679;SDS011;11507;44.858;10.374;2022-12-13T04:32:30;73.22;;;28.85;;
22679;SDS011;11507;44.858;10.374;2022-12-13T04:34:56;70.30;;;28.50;;
22679;SDS011;11507;44.858;10.374;2022-12-13T04:39:48;69.53;;;28.08;;
22679;SDS011;11507;44.858;10.374;2022-12-13T04:42:15;71.57;;;28.52;;
22679;SDS011;11507;44.858;10.374;2022-12-13T04:47:07;71.47;;;27.85;;
22679;SDS011;11507;44.858;10.374;2022-12-13T04:51:59;66.75;;;27.15;;
22679;SDS011;11507;44.858;10.374;2022-12-13T04:54:26;72.38;;;28.52;;
22679;SDS011;11507;44.858;10.374;2022-12-13T04:59:18;77.47;;;29.13;;
22679;SDS011;11507;44.858;10.374;2022-12-13T05:01:44;73.20;;;30.05;;
22679;SDS011;11507;44.858;10.374;2022-12-13T05:06:37;74.80;;;28.40;;
22679;SDS011;11507;44.858;10.374;2022-12-13T05:09:03;70.05;;;29.20;;
22679;SDS011;11507;44.858;10.374;2022-12-13T05:13:54;74.68;;;28.40;;
22679;SDS011;11507;44.858;10.374;2022-12-13T05:18:46;75.72;;;29.17;;
22679;SDS011;11507;44.858;10.374;2022-12-13T05:23:38;66.70;;;26.42;;
22679;SDS011;11507;44.858;10.374;2022-12-13T05:26:04;73.90;;;27.80;;
22679;SDS011;11507;44.858;10.374;2022-12-13T05:28:30;73.68;;;28.27;;
22679;SDS011;11507;44.858;10.374;2022-12-13T05:33:23;66.47;;;27.10;;
22679;SDS011;11507;44.858;10.374;2022-12-13T05:35:50;72.00;;;27.60;;
22679;SDS011;11507;44.858;10.374;2022-12-13T05:38:17;77.63;;;27.58;;
22679;SDS011;11507;44.858;10.374;2022-12-13T05:43:10;71.55;;;28.40;;
22679;SDS011;11507;44.858;10.374;2022-12-13T05:45:36;74.82;;;28.25;;
22679;SDS011;11507;44.858;10.374;2022-12-13T05:48:02;72.20;;;27.88;;
22679;SDS011;11507;44.858;10.374;2022-12-13T05:50:28;77.95;;;29.23;;
22679;SDS011;11507;44.858;10.374;2022-12-13T05:55:20;76.22;;;28.17;;
22679;SDS011;11507;44.858;10.374;2022-12-13T06:00:12;67.72;;;26.08;;
22679;SDS011;11507;44.858;10.374;2022-12-13T06:02:42;81.55;;;29.05;;
22679;SDS011;11507;44.858;10.374;2022-12-13T06:05:09;79.72;;;30.42;;
22679;SDS011;11507;44.858;10.374;2022-12-13T06:07:36;79.85;;;29.17;;
22679;SDS011;11507;44.858;10.374;2022-12-13T06:10:02;78.50;;;30.63;;
22679;SDS011;11507;44.858;10.374;2022-12-13T06:12:29;75.68;;;27.48;;
22679;SDS011;11507;44.858;10.374;2022-12-13T06:14:55;76.97;;;30.08;;
22679;SDS011;11507;44.858;10.374;2022-12-13T06:19:49;71.97;;;27.40;;
22679;SDS011;11507;44.858;10.374;2022-12-13T06:22:15;76.05;;;27.67;;
22679;SDS011;11507;44.858;10.374;2022-12-13T06:24:43;72.45;;;27.40;;
22679;SDS011;11507;44.858;10.374;2022-12-13T06:29:35;67.43;;;26.65;;
22679;SDS011;11507;44.858;10.374;2022-12-13T06:32:02;67.72;;;26.02;;
22679;SDS011;11507;44.858;10.374;2022-12-13T06:34:30;74.55;;;26.67;;
22679;SDS011;11507;44.858;10.374;2022-12-13T06:36:57;68.20;;;27.10;;
22679;SDS011;11507;44.858;10.374;2022-12-13T06:39:25;70.82;;;28.80;;
22679;SDS011;11507;44.858;10.374;2022-12-13T06:44:17;70.18;;;27.35;;
22679;SDS011;11507;44.858;10.374;2022-12-13T06:49:10;71.20;;;27.10;;
22679;SDS011;11507;44.858;10.374;2022-12-13T06:51:37;70.43;;;27.13;;
22679;SDS011;11507;44.858;10.374;2022-12-13T06:54:03;67.28;;;27.52;;
22679;SDS011;11507;44.858;10.374;2022-12-13T06:56:30;73.03;;;28.17;;
22679;SDS011;11507;44.858;10.374;2022-12-13T06:58:56;76.30;;;29.65;;
22679;SDS011;11507;44.858;10.374;2022-12-13T07:03:48;69.10;;;27.13;;
22679;SDS011;11507;44.858;10.374;2022-12-13T07:08:43;66.15;;;26.38;;
22679;SDS011;11507;44.858;10.374;2022-12-13T07:11:13;63.03;;;26.10;;
22679;SDS011;11507;44.858;10.374;2022-12-13T07:13:40;67.82;;;27.50;;
22679;SDS011;11507;44.858;10.374;2022-12-13T07:16:07;72.63;;;27.92;;
22679;SDS011;11507;44.858;10.374;2022-12-13T07:20:58;73.05;;;28.58;;
22679;SDS011;11507;44.858;10.374;2022-12-13T07:25:53;65.55;;;26.67;;
22679;SDS011;11507;44.858;10.374;2022-12-13T07:28:19;73.43;;;29.95;;
22679;SDS011;11507;44.858;10.374;2022-12-13T07:30:46;75.40;;;29.10;;
22679;SDS011;11507;44.858;10.374;2022-12-13T07:33:13;78.85;;;29.17;;
22679;SDS011;11507;44.858;10.374;2022-12-13T07:35:39;70.38;;;27.35;;
22679;SDS011;11507;44.858;10.374;2022-12-13T07:38:06;75.80;;;29.80;;
22679;SDS011;11507;44.858;10.374;2022-12-13T07:40:33;68.72;;;27.98;;
22679;SDS011;11507;44.858;10.374;2022-12-13T07:43:01;66.18;;;27.70;;
22679;SDS011;11507;44.858;10.374;2022-12-13T07:45:27;67.68;;;27.30;;
22679;SDS011;11507;44.858;10.374;2022-12-13T07:47:53;65.68;;;27.70;;
22679;SDS011;11507;44.858;10.374;2022-12-13T07:50:21;63.53;;;27.45;;
22679;SDS011;11507;44.858;10.374;2022-12-13T07:52:48;64.45;;;27.25;;
22679;SDS011;11507;44.858;10.374;2022-12-13T07:55:15;63.33;;;27.77;;
22679;SDS011;11507;44.858;10.374;2022-12-13T07:57:43;62.55;;;26.50;;
22679;SDS011;11507;44.858;10.374;2022-12-13T08:02:39;64.03;;;27.15;;
22679;SDS011;11507;44.858;10.374;2022-12-13T08:05:06;61.67;;;26.77;;
22679;SDS011;11507;44.858;10.374;2022-12-13T08:07:32;61.10;;;27.95;;
22679;SDS011;11507;44.858;10.374;2022-12-13T08:12:23;58.72;;;26.33;;
22679;SDS011;11507;44.858;10.374;2022-12-13T08:14:50;55.63;;;26.08;;
22679;SDS011;11507;44.858;10.374;2022-12-13T08:19:42;51.15;;;25.20;;
22679;SDS011;11507;44.858;10.374;2022-12-13T08:22:11;51.92;;;24.23;;
22679;SDS011;11507;44.858;10.374;2022-12-13T08:24:38;52.13;;;24.65;;
22679;SDS011;11507;44.858;10.374;2022-12-13T08:27:04;54.50;;;25.27;;
22679;SDS011;11507;44.858;10.374;2022-12-13T08:31:57;51.22;;;23.88;;
22679;SDS011;11507;44.858;10.374;2022-12-13T08:36:48;51.30;;;25.52;;
22679;SDS011;11507;44.858;10.374;2022-12-13T08:41:40;49.05;;;24.30;;
22679;SDS011;11507;44.858;10.374;2022-12-13T08:46:32;58.20;;;28.75;;
22679;SDS011;11507;44.858;10.374;2022-12-13T08:51:25;55.85;;;26.00;;
22679;SDS011;11507;44.858;10.374;2022-12-13T08:56:16;54.35;;;27.10;;
22679;SDS011;11507;44.858;10.374;2022-12-13T08:58:48;52.25;;;25.90;;
22679;SDS011;11507;44.858;10.374;2022-12-13T09:01:16;47.78;;;24.58;;
22679;SDS011;11507;44.858;10.374;2022-12-13T09:06:13;50.08;;;24.70;;
22679;SDS011;11507;44.858;10.374;2022-12-13T09:08:41;56.90;;;26.95;;
22679;SDS011;11507;44.858;10.374;2022-12-13T09:11:08;53.65;;;25.38;;
22679;SDS011;11507;44.858;10.374;2022-12-13T09:13:36;63.25;;;28.85;;
22679;SDS011;11507;44.858;10.374;2022-12-13T09:16:09;60.53;;;31.77;;
22679;SDS011;11507;44.858;10.374;2022-12-13T09:18:37;58.70;;;29.55;;
22679;SDS011;11507;44.858;10.374;2022-12-13T09:23:32;57.90;;;28.10;;
22679;SDS011;11507;44.858;10.374;2022-12-13T09:26:00;56.38;;;28.48;;
22679;SDS011;11507;44.858;10.374;2022-12-13T09:28:27;57.60;;;28.38;;
22679;SDS011;11507;44.858;10.374;2022-12-13T09:30:54;52.55;;;26.50;;
22679;SDS011;11507;44.858;10.374;2022-12-13T09:33:23;53.47;;;26.38;;
22679;SDS011;11507;44.858;10.374;2022-12-13T09:35:50;52.03;;;26.60;;
22679;SDS011;11507;44.858;10.374;2022-12-13T09:38:17;51.47;;;25.63;;
22679;SDS011;11507;44.858;10.374;2022-12-13T09:40:44;49.45;;;24.42;;
22679;SDS011;11507;44.858;10.374;2022-12-13T09:43:15;52.15;;;26.23;;
22679;SDS011;11507;44.858;10.374;2022-12-13T09:45:49;45.85;;;23.85;;
22679;SDS011;11507;44.858;10.374;2022-12-13T09:48:16;47.53;;;24.45;;
22679;SDS011;11507;44.858;10.374;2022-12-13T09:50:45;43.63;;;23.58;;
22679;SDS011;11507;44.858;10.374;2022-12-13T09:53:12;47.67;;;26.33;;
22679;SDS011;11507;44.858;10.374;2022-12-13T09:55:43;60.30;;;31.08;;
22679;SDS011;11507;44.858;10.374;2022-12-13T09:58:13;45.05;;;22.45;;
22679;SDS011;11507;44.858;10.374;2022-12-13T10:00:52;44.53;;;24.42;;
22679;SDS011;11507;44.858;10.374;2022-12-13T10:03:20;39.63;;;22.88;;
22679;SDS011;11507;44.858;10.374;2022-12-13T10:05:59;39.72;;;22.10;;
22679;SDS011;11507;44.858;10.374;2022-12-13T10:08:31;39.58;;;22.15;;
22679;SDS011;11507;44.858;10.374;2022-12-13T10:11:01;45.95;;;25.17;;
22679;SDS011;11507;44.858;10.374;2022-12-13T10:16:27;47.05;;;26.15;;
22679;SDS011;11507;44.858;10.374;2022-12-13T10:22:00;57.10;;;29.80;;
22679;SDS011;11507;44.858;10.374;2022-12-13T10:24:51;47.63;;;25.42;;
22679;SDS011;11507;44.858;10.374;2022-12-13T10:27:34;52.03;;;26.88;;
22679;SDS011;11507;44.858;10.374;2022-12-13T10:30:08;52.95;;;27.92;;
22679;SDS011;11507;44.858;10.374;2022-12-13T10:35:23;44.85;;;23.83;;
22679;SDS011;11507;44.858;10.374;2022-12-13T10:37:53;47.58;;;25.00;;
22679;SDS011;11507;44.858;10.374;2022-12-13T10:40:22;45.20;;;25.00;;
22679;SDS011;11507;44.858;10.374;2022-12-13T10:48:37;49.85;;;28.52;;
22679;SDS011;11507;44.858;10.374;2022-12-13T10:51:11;44.50;;;25.00;;
22679;SDS011;11507;44.858;10.374;2022-12-13T10:56:09;45.50;;;24.38;;
22679;SDS011;11507;44.858;10.374;2022-12-13T10:58:43;44.28;;;24.00;;
22679;SDS011;11507;44.858;10.374;2022-12-13T11:03:43;40.95;;;24.38;;
22679;SDS011;11507;44.858;10.374;2022-12-13T11:06:25;40.50;;;21.75;;
22679;SDS011;11507;44.858;10.374;2022-12-13T11:08:52;39.97;;;21.63;;
22679;SDS011;11507;44.858;10.374;2022-12-13T11:11:26;35.88;;;19.77;;
22679;SDS011;11507;44.858;10.374;2022-12-13T11:13:54;35.03;;;20.73;;
22679;SDS011;11507;44.858;10.374;2022-12-13T11:18:57;38.10;;;21.58;;
22679;SDS011;11507;44.858;10.374;2022-12-13T11:21:29;37.47;;;20.10;;
22679;SDS011;11507;44.858;10.374;2022-12-13T11:24:00;38.20;;;19.00;;
22679;SDS011;11507;44.858;10.374;2022-12-13T11:26:30;40.30;;;20.50;;
22679;SDS011;11507;44.858;10.374;2022-12-13T11:40:12;39.97;;;22.33;;
22679;SDS011;11507;44.858;10.374;2022-12-13T11:46:05;40.10;;;22.00;;
22679;SDS011;11507;44.858;10.374;2022-12-13T11:51:04;37.03;;;20.25;;
22679;SDS011;11507;44.858;10.374;2022-12-13T11:53:34;36.53;;;20.75;;
22679;SDS011;11507;44.858;10.374;2022-12-13T12:01:41;34.08;;;17.08;;
22679;SDS011;11507;44.858;10.374;2022-12-13T12:09:18;29.60;;;17.27;;
22679;SDS011;11507;44.858;10.374;2022-12-13T12:11:53;29.52;;;17.27;;
22679;SDS011;11507;44.858;10.374;2022-12-13T12:14:47;29.55;;;17.48;;
22679;SDS011;11507;44.858;10.374;2022-12-13T12:17:21;28.63;;;16.67;;
22679;SDS011;11507;44.858;10.374;2022-12-13T12:19:49;25.88;;;16.55;;
22679;SDS011;11507;44.858;10.374;2022-12-13T12:26:07;26.25;;;15.55;;
22679;SDS011;11507;44.858;10.374;2022-12-13T12:28:20;26.42;;;14.60;;
22679;SDS011;11507;44.858;10.374;2022-12-13T12:31:07;26.35;;;15.13;;
22679;SDS011;11507;44.858;10.374;2022-12-13T12:33:54;26.90;;;14.68;;
22679;SDS011;11507;44.858;10.374;2022-12-13T12:42:37;25.17;;;14.57;;
22679;SDS011;11507;44.858;10.374;2022-12-13T12:51:24;24.75;;;13.15;;
22679;SDS011;11507;44.858;10.374;2022-12-13T12:54:20;23.60;;;13.93;;
22679;SDS011;11507;44.858;10.374;2022-12-13T13:00:21;26.90;;;14.18;;
22679;SDS011;11507;44.858;10.374;2022-12-13T13:05:51;28.00;;;15.68;;
22679;SDS011;11507;44.858;10.374;2022-12-13T13:08:54;30.08;;;17.75;;
22679;SDS011;11507;44.858;10.374;2022-12-13T13:11:24;25.58;;;14.02;;
22679;SDS011;11507;44.858;10.374;2022-12-13T13:14:00;25.70;;;15.18;;
22679;SDS011;11507;44.858;10.374;2022-12-13T13:16:38;26.17;;;14.68;;
22679;SDS011;11507;44.858;10.374;2022-12-13T13:21:41;26.75;;;14.02;;
22679;SDS011;11507;44.858;10.374;2022-12-13T13:24:12;21.00;;;13.30;;
22679;SDS011;11507;44.858;10.374;2022-12-13T13:31:57;23.55;;;14.32;;
22679;SDS011;11507;44.858;10.374;2022-12-13T13:34:26;26.20;;;15.88;;
22679;SDS011;11507;44.858;10.374;2022-12-13T13:36:55;27.90;;;16.05;;
22679;SDS011;11507;44.858;10.374;2022-12-13T13:39:37;27.85;;;16.63;;
22679;SDS011;11507;44.858;10.374;2022-12-13T13:42:17;25.30;;;15.07;;
22679;SDS011;11507;44.858;10.374;2022-12-13T13:49:58;24.25;;;14.23;;
22679;SDS011;11507;44.858;10.374;2022-12-13T14:03:48;26.52;;;15.05;;
22679;SDS011;11507;44.858;10.374;2022-12-13T14:09:09;31.05;;;18.45;;
22679;SDS011;11507;44.858;10.374;2022-12-13T14:29:16;28.00;;;17.35;;
22679;SDS011;11507;44.858;10.374;2022-12-13T14:31:47;24.30;;;15.38;;
22679;SDS011;11507;44.858;10.374;2022-12-13T14:34:26;28.35;;;17.90;;
22679;SDS011;11507;44.858;10.374;2022-12-13T14:36:56;22.38;;;13.48;;
22679;SDS011;11507;44.858;10.374;2022-12-13T14:39:24;27.23;;;15.60;;
22679;SDS011;11507;44.858;10.374;2022-12-13T14:41:51;30.75;;;15.25;;
22679;SDS011;11507;44.858;10.374;2022-12-13T14:46:49;23.83;;;13.57;;
22679;SDS011;11507;44.858;10.374;2022-12-13T14:49:18;22.42;;;12.23;;
22679;SDS011;11507;44.858;10.374;2022-12-13T14:51:45;21.23;;;12.52;;
22679;SDS011;11507;44.858;10.374;2022-12-13T14:54:16;23.60;;;13.90;;
22679;SDS011;11507;44.858;10.374;2022-12-13T14:56:58;23.48;;;13.80;;
22679;SDS011;11507;44.858;10.374;2022-12-13T14:59:26;25.08;;;14.15;;
22679;SDS011;11507;44.858;10.374;2022-12-13T15:01:55;22.38;;;12.65;;
22679;SDS011;11507;44.858;10.374;2022-12-13T15:04:29;20.38;;;12.57;;
22679;SDS011;11507;44.858;10.374;2022-12-13T15:07:01;20.90;;;11.90;;
22679;SDS011;11507;44.858;10.374;2022-12-13T15:12:15;22.40;;;12.07;;
22679;SDS011;11507;44.858;10.374;2022-12-13T15:14:45;25.33;;;14.68;;
22679;SDS011;11507;44.858;10.374;2022-12-13T15:17:27;40.80;;;20.77;;
22679;SDS011;11507;44.858;10.374;2022-12-13T15:20:21;31.15;;;18.85;;
22679;SDS011;11507;44.858;10.374;2022-12-13T15:22:55;30.30;;;17.63;;
22679;SDS011;11507;44.858;10.374;2022-12-13T15:27:59;26.50;;;15.20;;
22679;SDS011;11507;44.858;10.374;2022-12-13T15:30:27;27.50;;;17.65;;
22679;SDS011;11507;44.858;10.374;2022-12-13T15:33:06;24.42;;;14.98;;
22679;SDS011;11507;44.858;10.374;2022-12-13T15:36:07;27.15;;;15.15;;
22679;SDS011;11507;44.858;10.374;2022-12-13T15:39:02;27.88;;;16.85;;
22679;SDS011;11507;44.858;10.374;2022-12-13T15:43:56;30.50;;;17.30;;
22679;SDS011;11507;44.858;10.374;2022-12-13T15:46:29;25.25;;;16.38;;
22679;SDS011;11507;44.858;10.374;2022-12-13T15:48:58;26.33;;;15.30;;
22679;SDS011;11507;44.858;10.374;2022-12-13T15:51:27;26.15;;;15.90;;
22679;SDS011;11507;44.858;10.374;2022-12-13T15:54:01;27.25;;;16.73;;
22679;SDS011;11507;44.858;10.374;2022-12-13T15:59:39;29.27;;;17.98;;
22679;SDS011;11507;44.858;10.374;2022-12-13T16:02:17;29.13;;;18.25;;
22679;SDS011;11507;44.858;10.374;2022-12-13T16:04:49;29.15;;;17.88;;
22679;SDS011;11507;44.858;10.374;2022-12-13T16:07:23;31.67;;;18.83;;
22679;SDS011;11507;44.858;10.374;2022-12-13T16:09:56;33.00;;;19.60;;
22679;SDS011;11507;44.858;10.374;2022-12-13T16:12:42;32.53;;;19.17;;
22679;SDS011;11507;44.858;10.374;2022-12-13T16:15:21;28.10;;;17.25;;
22679;SDS011;11507;44.858;10.374;2022-12-13T16:17:52;30.27;;;18.65;;
22679;SDS011;11507;44.858;10.374;2022-12-13T16:20:21;28.73;;;18.13;;
22679;SDS011;11507;44.858;10.374;2022-12-13T16:22:47;35.22;;;20.27;;
22679;SDS011;11507;44.858;10.374;2022-12-13T16:25:15;34.03;;;19.45;;
22679;SDS011;11507;44.858;10.374;2022-12-13T16:27:42;30.27;;;18.30;;
22679;SDS011;11507;44.858;10.374;2022-12-13T16:30:11;28.15;;;17.83;;
22679;SDS011;11507;44.858;10.374;2022-12-13T16:32:37;34.55;;;21.30;;
22679;SDS011;11507;44.858;10.374;2022-12-13T16:37:30;41.10;;;24.02;;
22679;SDS011;11507;44.858;10.374;2022-12-13T16:42:23;49.67;;;29.13;;
22679;SDS011;11507;44.858;10.374;2022-12-13T16:44:49;38.63;;;23.45;;
22679;SDS011;11507;44.858;10.374;2022-12-13T16:47:16;37.42;;;22.42;;
22679;SDS011;11507;44.858;10.374;2022-12-13T16:52:08;32.33;;;19.35;;
22679;SDS011;11507;44.858;10.374;2022-12-13T16:56:59;33.75;;;18.95;;
22679;SDS011;11507;44.858;10.374;2022-12-13T17:01:52;31.00;;;19.03;;
22679;SDS011;11507;44.858;10.374;2022-12-13T17:04:20;30.48;;;18.65;;
22679;SDS011;11507;44.858;10.374;2022-12-13T17:06:50;30.70;;;18.88;;
22679;SDS011;11507;44.858;10.374;2022-12-13T17:09:16;30.55;;;18.42;;
22679;SDS011;11507;44.858;10.374;2022-12-13T17:11:44;33.15;;;19.15;;
22679;SDS011;11507;44.858;10.374;2022-12-13T17:14:10;37.75;;;21.98;;
22679;SDS011;11507;44.858;10.374;2022-12-13T17:19:04;33.28;;;19.90;;
22679;SDS011;11507;44.858;10.374;2022-12-13T17:21:33;35.47;;;19.48;;
22679;SDS011;11507;44.858;10.374;2022-12-13T17:24:03;31.95;;;19.42;;
22679;SDS011;11507;44.858;10.374;2022-12-13T17:26:31;29.15;;;18.17;;
22679;SDS011;11507;44.858;10.374;2022-12-13T17:31:23;39.90;;;22.98;;
22679;SDS011;11507;44.858;10.374;2022-12-13T17:33:49;36.65;;;20.45;;
22679;SDS011;11507;44.858;10.374;2022-12-13T17:36:16;36.10;;;21.77;;
22679;SDS011;11507;44.858;10.374;2022-12-13T17:41:12;36.28;;;21.88;;
22679;SDS011;11507;44.858;10.374;2022-12-13T17:43:39;40.03;;;22.20;;
22679;SDS011;11507;44.858;10.374;2022-12-13T17:46:06;34.17;;;20.00;;
22679;SDS011;11507;44.858;10.374;2022-12-13T17:48:35;31.80;;;18.23;;
22679;SDS011;11507;44.858;10.374;2022-12-13T17:51:02;29.83;;;18.52;;
22679;SDS011;11507;44.858;10.374;2022-12-13T17:53:30;33.83;;;19.38;;
22679;SDS011;11507;44.858;10.374;2022-12-13T17:55:57;32.10;;;17.08;;
22679;SDS011;11507;44.858;10.374;2022-12-13T17:58:26;44.00;;;23.95;;
22679;SDS011;11507;44.858;10.374;2022-12-13T18:00:54;42.22;;;23.48;;
22679;SDS011;11507;44.858;10.374;2022-12-13T18:03:20;42.15;;;22.73;;
22679;SDS011;11507;44.858;10.374;2022-12-13T18:05:56;38.35;;;22.02;;
22679;SDS011;11507;44.858;10.374;2022-12-13T18:08:25;34.58;;;21.23;;
22679;SDS011;11507;44.858;10.374;2022-12-13T18:10:53;34.45;;;19.40;;
22679;SDS011;11507;44.858;10.374;2022-12-13T18:13:21;35.47;;;21.63;;
22679;SDS011;11507;44.858;10.374;2022-12-13T18:15:50;38.65;;;22.10;;
22679;SDS011;11507;44.858;10.374;2022-12-13T18:20:47;36.67;;;22.35;;
22679;SDS011;11507;44.858;10.374;2022-12-13T18:23:16;37.80;;;21.25;;
22679;SDS011;11507;44.858;10.374;2022-12-13T18:25:48;42.20;;;23.70;;
22679;SDS011;11507;44.858;10.374;2022-12-13T18:28:16;48.28;;;29.13;;
22679;SDS011;11507;44.858;10.374;2022-12-13T18:30:42;37.72;;;21.38;;
22679;SDS011;11507;44.858;10.374;2022-12-13T18:33:09;31.92;;;19.40;;
22679;SDS011;11507;44.858;10.374;2022-12-13T18:35:36;33.00;;;19.75;;
22679;SDS011;11507;44.858;10.374;2022-12-13T18:40:28;32.70;;;18.98;;
22679;SDS011;11507;44.858;10.374;2022-12-13T18:42:55;32.83;;;19.98;;
22679;SDS011;11507;44.858;10.374;2022-12-13T18:45:22;34.70;;;20.33;;
22679;SDS011;11507;44.858;10.374;2022-12-13T18:47:49;34.90;;;21.17;;
22679;SDS011;11507;44.858;10.374;2022-12-13T18:50:16;35.85;;;20.63;;
22679;SDS011;11507;44.858;10.374;2022-12-13T18:52:42;36.42;;;19.90;;
22679;SDS011;11507;44.858;10.374;2022-12-13T18:57:34;39.42;;;23.23;;
22679;SDS011;11507;44.858;10.374;2022-12-13T19:02:26;36.95;;;21.90;;
22679;SDS011;11507;44.858;10.374;2022-12-13T19:04:52;37.55;;;21.77;;
22679;SDS011;11507;44.858;10.374;2022-12-13T19:09:44;36.83;;;20.65;;
22679;SDS011;11507;44.858;10.374;2022-12-13T19:14:36;33.33;;;21.08;;
22679;SDS011;11507;44.858;10.374;2022-12-13T19:17:02;38.10;;;23.48;;
22679;SDS011;11507;44.858;10.374;2022-12-13T19:21:54;38.72;;;23.08;;
22679;SDS011;11507;44.858;10.374;2022-12-13T19:26:46;43.45;;;23.95;;
22679;SDS011;11507;44.858;10.374;2022-12-13T19:31:38;39.30;;;23.58;;